Terminal Aerodrome Forecast
Issued by NWS

Home | Current Version | Previous Version | Text Only | Print | Product List | Glossary On
Versions: 1 2 3 4 5 6 7 8 9 10 11 12 13
294
FTUS44 KSJT 252345
TAFBBD
TAF
KBBD 252345Z 2600/2624 02006KT 5SM -RA OVC012
     FM260200 02014KT P6SM RA OVC005
     FM260800 02013KT P6SM VCSH BKN008
     FM261500 03014KT P6SM VCSH BKN012
      AMD NOT SKED=

USA.gov is the U.S. government's official web portal to all federal, state and local government web resources and services.